Terminal Aerodrome Forecast
Issued by NWS Sioux Falls, SD

Home | Current Version | Previous Version | Graphics & Text | Print | Product List | Glossary On
Versions: 1 2 3 4 5 6 7 8 9 10 11 12 13 14 15 16 17 18 19 20 21 22 23 24 25 26 27 28
450
FTUS43 KFSD 220905 AAA
TAFSUX
TAF AMD
KSUX 220905Z 2209/2306 11004KT P6SM VCTS OVC080CB
     FM221000 15008KT P6SM -TSRA OVC080CB
     FM221200 15008KT P6SM SCT080 OVC150
     FM221600 15007KT P6SM BKN100=

USA.gov is the U.S. government's official web portal to all federal, state and local government web resources and services.